Time;durP1;ratioP1;P1;durP2;ratioP2;P2;SDS_P1;SDS_P2;PMS_P1;PMS_P2;Temp;Humidity;BMP_temperature;BMP_pressure;BME280_temperature;BME280_humidity;BME280_pressure;Samples;Min_cycle;Max_cycle;Signal;HPM_P1;HPM_P2
2021/07/23 00:01:27;;;;;;;0.40;0.20;;;15.40;50.70;;;;;;4951004;29;20610;-67
2021/07/23 00:03:53;;;;;;;0.40;0.20;;;15.30;73.30;;;;;;4922034;29;20223;-68
2021/07/23 00:06:19;;;;;;;0.40;0.20;;;15.20;96.80;;;;;;4938769;29;20197;-67
2021/07/23 00:08:44;;;;;;;0.50;0.50;;;15.20;99.90;;;;;;4938823;29;20180;-65
2021/07/23 00:11:10;;;;;;;0.40;0.20;;;15.20;99.90;;;;;;4938971;29;20200;-64
2021/07/23 00:13:35;;;;;;;0.60;0.57;;;15.10;99.90;;;;;;4922034;29;20193;-65
2021/07/23 00:16:01;;;;;;;0.40;0.20;;;15.20;99.90;;;;;;4939116;29;20189;-65
2021/07/23 00:18:26;;;;;;;0.40;0.20;;;15.20;99.90;;;;;;4938523;29;20184;-64
2021/07/23 00:20:52;;;;;;;0.40;0.20;;;15.20;99.90;;;;;;4938552;29;20519;-64
2021/07/23 00:23:17;;;;;;;0.40;0.10;;;15.20;99.90;;;;;;4948978;28;20242;-64
2021/07/23 00:25:43;;;;;;;0.40;0.20;;;15.30;99.90;;;;;;4974852;28;20589;-64
2021/07/23 00:28:12;;;;;;;0.40;0.20;;;15.30;99.90;;;;;;4976829;28;20352;-65
2021/07/23 00:30:37;;;;;;;0.52;0.38;;;15.30;93.70;;;;;;4977168;28;20179;-65
2021/07/23 00:33:04;;;;;;;0.40;0.20;;;15.10;80.60;;;;;;4976884;28;20258;-63
2021/07/23 00:35:30;;;;;;;0.40;0.20;;;15.10;97.30;;;;;;4976936;28;20590;-65
2021/07/23 00:37:57;;;;;;;0.40;0.10;;;15.20;99.90;;;;;;4959725;28;20274;-65
2021/07/23 00:40:26;;;;;;;0.40;0.20;;;15.40;81.60;;;;;;4959269;28;20604;-64
2021/07/23 00:42:52;;;;;;;0.40;0.20;;;15.60;28.90;;;;;;4976509;28;20597;-64
2021/07/23 00:45:20;;;;;;;0.40;0.10;;;15.60;17.40;;;;;;4976353;28;20183;-65
2021/07/23 00:47:52;;;;;;;0.40;0.17;;;15.60;1.00;;;;;;4976637;28;20609;-65
2021/07/23 00:50:18;;;;;;;0.50;0.38;;;15.60;1.00;;;;;;4959226;28;20631;-65
2021/07/23 00:52:45;;;;;;;0.40;0.10;;;15.80;1.00;;;;;;4976776;28;20184;-66
2021/07/23 00:55:12;;;;;;;0.40;0.10;;;15.90;1.00;;;;;;4976448;28;20192;-65
2021/07/23 00:57:41;;;;;;;0.40;0.17;;;15.90;1.00;;;;;;4976333;28;20194;-65
2021/07/23 01:00:07;;;;;;;0.40;0.20;;;16.00;1.00;;;;;;4976206;28;20184;-68
2021/07/23 01:02:33;;;;;;;0.40;0.20;;;16.10;1.00;;;;;;4948427;28;20204;-65
2021/07/23 01:04:58;;;;;;;0.40;0.20;;;16.00;1.00;;;;;;4937799;29;20216;-65
2021/07/23 01:07:24;;;;;;;0.60;0.50;;;16.20;1.00;;;;;;4937745;29;20260;-64
2021/07/23 01:09:49;;;;;;;0.40;0.20;;;16.10;1.00;;;;;;4937767;29;20498;-64
2021/07/23 01:12:16;;;;;;;0.40;0.20;;;16.30;1.00;;;;;;4937910;29;20220;-64
2021/07/23 01:14:42;;;;;;;0.40;0.10;;;16.40;1.00;;;;;;4937779;29;20650;-64
2021/07/23 01:17:08;;;;;;;0.50;0.40;;;16.20;1.00;;;;;;4937603;29;20428;-64
2021/07/23 01:19:51;;;;;;;0.40;0.20;;;16.20;1.00;;;;;;4937617;29;20768;-65
2021/07/23 01:22:19;;;;;;;0.50;0.43;;;16.40;1.00;;;;;;4937626;29;20764;-65
2021/07/23 01:24:47;;;;;;;0.40;0.20;;;16.40;1.00;;;;;;4937714;29;20231;-65
2021/07/23 01:27:12;;;;;;;0.40;0.20;;;16.30;1.00;;;;;;4920539;29;20496;-65
2021/07/23 01:29:38;;;;;;;0.40;0.20;;;16.50;1.00;;;;;;4937424;29;20187;-64
2021/07/23 01:32:04;;;;;;;0.50;0.27;;;16.60;1.00;;;;;;4937494;29;20195;-65
2021/07/23 01:34:29;;;;;;;0.40;0.20;;;16.60;1.00;;;;;;4937544;29;20522;-64
2021/07/23 01:36:55;;;;;;;0.40;0.17;;;16.50;1.00;;;;;;4937241;29;20917;-65
2021/07/23 01:39:21;;;;;;;0.73;0.73;;;16.70;1.00;;;;;;4937249;29;20279;-64
2021/07/23 01:41:47;;;;;;;0.40;0.20;;;16.70;99.90;;;;;;4937389;29;20214;-67
2021/07/23 01:44:13;;;;;;;0.40;0.20;;;16.60;99.90;;;;;;4937225;29;20637;-66
2021/07/23 01:46:39;;;;;;;0.40;0.17;;;16.70;99.90;;;;;;4937127;29;20432;-66
2021/07/23 01:49:04;;;;;;;0.40;0.20;;;16.90;99.90;;;;;;4940708;29;20211;-67
2021/07/23 01:51:30;;;;;;;0.40;0.27;;;17.00;99.90;;;;;;4936786;29;20192;-66
2021/07/23 01:53:55;;;;;;;0.40;0.20;;;17.00;99.90;;;;;;4937276;29;20656;-66
2021/07/23 01:56:21;;;;;;;0.50;0.50;;;16.80;99.90;;;;;;4936982;29;20200;-66
2021/07/23 01:58:46;;;;;;;0.40;0.20;;;16.70;99.90;;;;;;4936989;29;20252;-67
2021/07/23 02:01:12;;;;;;;1.23;0.87;;;16.60;99.90;;;;;;4937227;29;20189;-66
2021/07/23 02:03:37;;;;;;;0.40;0.20;;;16.70;99.90;;;;;;4937110;29;20220;-66
2021/07/23 02:06:03;;;;;;;0.40;0.10;;;16.80;99.90;;;;;;4936892;29;20212;-66
2021/07/23 02:08:28;;;;;;;0.77;0.73;;;16.90;99.90;;;;;;4936795;29;20244;-66
2021/07/23 02:10:54;;;;;;;0.40;0.20;;;16.70;99.90;;;;;;4936450;29;20189;-66
2021/07/23 02:13:19;;;;;;;0.40;0.10;;;16.60;99.90;;;;;;4936799;29;20189;-67
2021/07/23 02:15:45;;;;;;;0.40;0.20;;;16.40;99.90;;;;;;4936870;29;20239;-66
2021/07/23 02:18:11;;;;;;;0.40;0.20;;;16.60;99.90;;;;;;4919916;29;20287;-67
2021/07/23 02:20:37;;;;;;;0.50;0.30;;;16.80;99.90;;;;;;4937547;29;20200;-68
2021/07/23 02:23:03;;;;;;;0.40;0.20;;;16.80;99.90;;;;;;4936691;29;20188;-67
2021/07/23 02:25:30;;;;;;;0.40;0.20;;;16.70;99.90;;;;;;4936656;29;20424;-67
2021/07/23 02:27:56;;;;;;;3.87;3.57;;;16.70;99.90;;;;;;4936869;29;20267;-67
2021/07/23 02:30:22;;;;;;;0.40;0.20;;;16.70;99.90;;;;;;4936351;29;20437;-67
2021/07/23 02:32:47;;;;;;;0.50;0.30;;;16.70;99.90;;;;;;4936566;29;20778;-67
2021/07/23 02:35:16;;;;;;;0.40;0.20;;;16.50;99.90;;;;;;4936778;29;20914;-66
2021/07/23 02:37:42;;;;;;;0.40;0.20;;;16.50;1.00;;;;;;4936883;29;20181;-65
2021/07/23 02:40:08;;;;;;;0.50;0.40;;;16.70;99.90;;;;;;4937922;29;20886;-68
2021/07/23 02:42:33;;;;;;;0.40;0.20;;;16.60;99.90;;;;;;4936689;29;20185;-66
2021/07/23 02:44:59;;;;;;;1.13;0.70;;;16.40;1.00;;;;;;4936344;29;20472;-66
2021/07/23 02:47:25;;;;;;;0.40;0.20;;;16.20;1.00;;;;;;4936415;29;20189;-63
2021/07/23 02:49:50;;;;;;;0.40;0.20;;;15.70;20.50;;;;;;4936268;29;20255;-63
2021/07/23 02:52:16;;;;;;;0.40;0.20;;;15.70;99.90;;;;;;4936864;29;20220;-65
2021/07/23 02:54:41;;;;;;;0.40;0.20;;;15.90;99.90;;;;;;4936181;29;20614;-67
2021/07/23 02:57:07;;;;;;;0.40;0.20;;;16.00;99.90;;;;;;4936789;29;20625;-68
2021/07/23 02:59:32;;;;;;;0.40;0.20;;;16.10;99.90;;;;;;4936407;29;20189;-67
2021/07/23 03:01:58;;;;;;;0.40;0.20;;;16.20;99.90;;;;;;4936223;29;20327;-67
2021/07/23 03:04:23;;;;;;;0.40;0.20;;;16.10;99.90;;;;;;4937823;29;20215;-67
2021/07/23 03:06:49;;;;;;;0.53;0.40;;;16.00;99.90;;;;;;4939916;29;20275;-67
2021/07/23 03:09:14;;;;;;;0.40;0.20;;;16.30;99.90;;;;;;4922539;29;20184;-67
2021/07/23 03:11:40;;;;;;;0.40;0.20;;;16.10;99.90;;;;;;4940321;29;20185;-67
2021/07/23 03:14:05;;;;;;;0.40;0.20;;;15.90;99.90;;;;;;4940127;29;20252;-68
2021/07/23 03:16:31;;;;;;;0.43;0.33;;;16.20;99.90;;;;;;4939934;29;20569;-67
2021/07/23 03:18:56;;;;;;;0.40;0.20;;;16.30;57.00;;;;;;4939687;29;20284;-67
2021/07/23 03:21:22;;;;;;;0.40;0.20;;;16.40;37.20;;;;;;4940365;29;20276;-67
2021/07/23 03:23:48;;;;;;;1.10;0.97;;;16.30;56.80;;;;;;4939655;29;20291;-67
2021/07/23 03:26:14;;;;;;;0.40;0.20;;;16.20;99.90;;;;;;4939766;29;20260;-67
2021/07/23 03:28:39;;;;;;;0.40;0.20;;;15.90;99.90;;;;;;4939523;29;20496;-67
2021/07/23 03:31:10;;;;;;;0.40;0.20;;;15.90;99.90;;;;;;4939703;29;20193;-67
2021/07/23 03:33:35;;;;;;;0.40;0.20;;;16.10;99.90;;;;;;4939659;29;20204;-67
2021/07/23 03:36:01;;;;;;;0.40;0.20;;;16.20;99.90;;;;;;4939661;29;20189;-66
2021/07/23 03:38:26;;;;;;;0.40;0.20;;;16.00;99.90;;;;;;4922559;29;20185;-66
2021/07/23 03:40:52;;;;;;;0.60;0.50;;;15.90;99.90;;;;;;4939963;29;20180;-65
2021/07/23 03:43:17;;;;;;;0.40;0.20;;;16.10;99.90;;;;;;4939635;29;20205;-65
2021/07/23 03:45:43;;;;;;;0.40;0.20;;;16.40;99.90;;;;;;4939605;29;20634;-65
2021/07/23 03:48:08;;;;;;;0.40;0.20;;;16.60;99.90;;;;;;4939172;29;20530;-66
2021/07/23 03:50:34;;;;;;;0.50;0.30;;;16.50;99.90;;;;;;4939342;29;20178;-65
2021/07/23 03:52:59;;;;;;;0.40;0.20;;;16.50;99.90;;;;;;4939547;29;20619;-65
2021/07/23 03:55:25;;;;;;;0.40;0.27;;;16.60;99.90;;;;;;4939296;29;20188;-66
2021/07/23 03:57:50;;;;;;;0.80;0.80;;;16.40;99.90;;;;;;4939206;29;20177;-65
2021/07/23 04:00:17;;;;;;;0.40;0.20;;;16.60;99.90;;;;;;4939125;29;20612;-65
2021/07/23 04:02:42;;;;;;;0.40;0.20;;;16.50;99.90;;;;;;4939034;29;20177;-65
2021/07/23 04:05:08;;;;;;;0.40;0.20;;;16.60;99.90;;;;;;4939275;29;20472;-65
2021/07/23 04:07:34;;;;;;;0.40;0.20;;;16.80;99.90;;;;;;4938929;29;20611;-66
2021/07/23 04:10:01;;;;;;;0.40;0.20;;;16.80;99.90;;;;;;4938665;29;20429;-67
2021/07/23 04:12:26;;;;;;;0.40;0.20;;;16.80;99.90;;;;;;4938950;29;20204;-67
2021/07/23 04:14:52;;;;;;;0.60;0.40;;;16.90;99.90;;;;;;4938587;29;20184;-67
2021/07/23 04:17:17;;;;;;;0.40;0.20;;;16.90;99.90;;;;;;4938969;29;20192;-67
2021/07/23 04:19:43;;;;;;;0.50;0.40;;;17.00;99.90;;;;;;4921983;29;20227;-66
2021/07/23 04:22:08;;;;;;;0.50;0.30;;;17.10;99.90;;;;;;4938917;29;20272;-66
2021/07/23 04:24:34;;;;;;;0.77;0.33;;;17.00;99.90;;;;;;4939086;29;20223;-65
2021/07/23 04:27:00;;;;;;;0.40;0.20;;;17.00;99.90;;;;;;4938767;29;20181;-65
2021/07/23 04:29:25;;;;;;;0.40;0.20;;;16.90;99.90;;;;;;4938511;29;20204;-65
2021/07/23 04:31:51;;;;;;;1.80;1.37;;;17.00;99.90;;;;;;4938937;29;20271;-65
2021/07/23 04:34:17;;;;;;;0.40;0.30;;;16.80;99.90;;;;;;4938584;29;20193;-65
2021/07/23 04:36:42;;;;;;;0.40;0.20;;;16.70;99.90;;;;;;4921513;29;20211;-65
2021/07/23 04:39:08;;;;;;;0.40;0.20;;;16.90;99.90;;;;;;4938507;29;20195;-66
2021/07/23 04:41:33;;;;;;;0.40;0.20;;;17.20;99.90;;;;;;4938570;29;20181;-65
2021/07/23 04:43:59;;;;;;;0.40;0.20;;;17.30;99.90;;;;;;4938293;29;20296;-65
2021/07/23 04:46:25;;;;;;;0.40;0.20;;;17.40;99.90;;;;;;4921589;29;20220;-65
2021/07/23 04:48:50;;;;;;;1.47;0.87;;;17.60;99.90;;;;;;4938177;29;20169;-66
2021/07/23 04:51:16;;;;;;;0.40;0.20;;;17.60;99.90;;;;;;4921477;29;20272;-66
2021/07/23 04:53:41;;;;;;;0.40;0.20;;;17.70;99.90;;;;;;4938282;29;20263;-66
2021/07/23 04:56:07;;;;;;;0.40;0.20;;;17.80;99.90;;;;;;4938448;29;20678;-65
2021/07/23 04:58:33;;;;;;;0.40;0.20;;;17.90;85.90;;;;;;4937904;29;20189;-66
2021/07/23 05:00:59;;;;;;;0.40;0.20;;;17.90;49.70;;;;;;4938006;29;20188;-65
2021/07/23 05:03:35;;;;;;;0.40;0.20;;;17.80;93.90;;;;;;4938157;29;20483;-66
2021/07/23 05:06:01;;;;;;;0.40;0.20;;;17.50;59.10;;;;;;4937781;29;20462;-65
2021/07/23 05:08:28;;;;;;;0.40;0.20;;;17.40;99.90;;;;;;4937603;29;20973;-65
2021/07/23 05:10:54;;;;;;;0.40;0.20;;;17.20;99.90;;;;;;4937716;29;20437;-66
2021/07/23 05:13:21;;;;;;;0.40;0.20;;;17.20;99.90;;;;;;4938042;29;20200;-63
2021/07/23 05:15:47;;;;;;;0.40;0.20;;;17.20;99.90;;;;;;4937812;29;20519;-65
2021/07/23 05:18:13;;;;;;;0.93;0.50;;;17.00;99.90;;;;;;4937379;29;20797;-66
2021/07/23 05:20:39;;;;;;;0.40;0.30;;;16.90;99.90;;;;;;4921029;29;20236;-65
2021/07/23 05:23:04;;;;;;;0.40;0.20;;;16.80;99.90;;;;;;4937534;29;20211;-66
2021/07/23 05:25:34;;;;;;;0.43;0.23;;;16.80;99.90;;;;;;4920830;29;20180;-65
2021/07/23 05:28:00;;;;;;;0.50;0.40;;;16.90;99.90;;;;;;4936713;29;20579;-66
2021/07/23 05:30:26;;;;;;;0.40;0.20;;;17.00;99.90;;;;;;4937425;29;20497;-66
2021/07/23 05:32:51;;;;;;;0.40;0.20;;;17.10;99.90;;;;;;4937455;29;20425;-65
2021/07/23 05:35:17;;;;;;;0.40;0.10;;;17.10;99.90;;;;;;4937178;29;20239;-65
2021/07/23 05:37:42;;;;;;;0.40;0.20;;;17.30;99.90;;;;;;4937224;29;20260;-65
2021/07/23 05:40:09;;;;;;;0.40;0.20;;;17.10;99.90;;;;;;4937196;29;20611;-65
2021/07/23 05:42:34;;;;;;;1.73;0.83;;;17.20;99.90;;;;;;4937131;29;20216;-65
2021/07/23 05:45:00;;;;;;;0.40;0.20;;;17.00;99.90;;;;;;4937106;29;20519;-65
2021/07/23 05:47:27;;;;;;;0.40;0.20;;;16.50;99.90;;;;;;4920227;29;20187;-65
2021/07/23 05:49:52;;;;;;;0.40;0.20;;;16.70;99.90;;;;;;4936941;29;20173;-65
2021/07/23 05:52:18;;;;;;;0.40;0.20;;;16.60;99.90;;;;;;4936960;29;20440;-66
2021/07/23 05:54:43;;;;;;;1.80;0.77;;;16.60;99.90;;;;;;4920739;29;20189;-65
2021/07/23 05:57:09;;;;;;;0.40;0.20;;;16.50;99.90;;;;;;4936964;29;20216;-65
2021/07/23 05:59:34;;;;;;;0.50;0.23;;;16.50;99.90;;;;;;4937181;29;20185;-65
2021/07/23 06:02:00;;;;;;;0.40;0.20;;;16.60;99.90;;;;;;4937736;29;20181;-66
2021/07/23 06:04:26;;;;;;;0.40;0.20;;;16.30;99.90;;;;;;4937437;29;20307;-65
2021/07/23 06:06:51;;;;;;;0.40;0.20;;;16.40;99.90;;;;;;4937284;29;20343;-65
2021/07/23 06:09:17;;;;;;;0.40;0.20;;;16.80;99.90;;;;;;4937080;29;20193;-66
2021/07/23 06:11:42;;;;;;;0.40;0.20;;;16.90;99.90;;;;;;4937433;29;20189;-65
2021/07/23 06:14:08;;;;;;;0.40;0.20;;;17.20;99.90;;;;;;4937278;29;20204;-65
2021/07/23 06:16:33;;;;;;;0.40;0.20;;;17.20;99.90;;;;;;4937215;29;20189;-65
2021/07/23 06:19:00;;;;;;;0.40;0.20;;;17.30;99.90;;;;;;4937214;29;20192;-64
2021/07/23 06:21:26;;;;;;;0.60;0.40;;;17.60;99.90;;;;;;4937277;29;20222;-66
2021/07/23 06:23:52;;;;;;;0.40;0.20;;;17.70;99.90;;;;;;4937375;29;20535;-64
2021/07/23 06:26:18;;;;;;;0.40;0.20;;;17.70;99.90;;;;;;4937131;29;20770;-66
2021/07/23 06:28:43;;;;;;;0.40;0.20;;;17.70;99.90;;;;;;4936884;29;20185;-68
2021/07/23 06:31:11;;;;;;;0.90;0.87;;;17.80;99.90;;;;;;4936993;29;20564;-66
2021/07/23 06:33:36;;;;;;;0.40;0.20;;;17.80;99.90;;;;;;4936982;29;20188;-66
2021/07/23 06:36:02;;;;;;;0.40;0.20;;;18.00;99.90;;;;;;4937190;29;20986;-66
2021/07/23 06:38:28;;;;;;;2.63;2.53;;;18.20;92.80;;;;;;4936750;29;20181;-68
2021/07/23 06:40:54;;;;;;;3.33;2.33;;;18.30;34.10;;;;;;4937017;29;20489;-67
2021/07/23 06:43:22;;;;;;;1.50;1.40;;;18.30;17.00;;;;;;4936989;29;20272;-68
2021/07/23 06:45:56;;;;;;;0.40;0.20;;;18.10;74.00;;;;;;4948363;28;20290;-67
2021/07/23 06:48:22;;;;;;;0.60;0.60;;;18.00;66.20;;;;;;4959246;28;20576;-67
2021/07/23 06:50:51;;;;;;;0.40;0.20;;;18.30;24.40;;;;;;4961441;28;20467;-67
2021/07/23 06:53:17;;;;;;;0.40;0.20;;;18.30;1.00;;;;;;4955714;29;20195;-67
2021/07/23 06:55:42;;;;;;;0.40;0.20;;;18.60;1.00;;;;;;4974179;28;20427;-68
2021/07/23 06:58:08;;;;;;;0.40;0.20;;;18.70;1.00;;;;;;4974491;28;20486;-68
2021/07/23 07:00:34;;;;;;;0.40;0.20;;;18.70;1.00;;;;;;4974646;28;20238;-67
2021/07/23 07:03:00;;;;;;;0.40;0.20;;;18.90;1.00;;;;;;4965844;28;20199;-67
2021/07/23 07:05:26;;;;;;;0.40;0.20;;;18.90;1.00;;;;;;4955485;29;20671;-67
2021/07/23 07:07:52;;;;;;;0.40;0.20;;;19.20;1.00;;;;;;4955433;29;20428;-66
2021/07/23 07:10:17;;;;;;;1.43;1.33;;;19.70;99.90;;;;;;4948477;29;20446;-66
2021/07/23 07:12:43;;;;;;;0.63;0.30;;;19.80;99.90;;;;;;4940077;29;20214;-66
2021/07/23 07:15:09;;;;;;;0.50;0.20;;;19.50;99.90;;;;;;4956053;29;20624;-68
2021/07/23 07:17:34;;;;;;;0.40;0.20;;;19.20;99.90;;;;;;4947881;29;20192;-67
2021/07/23 07:20:00;;;;;;;0.40;0.20;;;18.80;99.90;;;;;;4952998;28;20194;-66
2021/07/23 07:22:26;;;;;;;0.60;0.60;;;18.50;1.00;;;;;;4957569;28;20190;-67
2021/07/23 07:24:53;;;;;;;0.40;0.20;;;18.50;1.00;;;;;;4974920;28;20266;-67
2021/07/23 07:27:19;;;;;;;0.40;0.20;;;18.90;1.00;;;;;;4957365;28;20495;-67
2021/07/23 07:29:44;;;;;;;0.40;0.20;;;19.20;99.90;;;;;;4955492;29;20442;-67
2021/07/23 07:32:10;;;;;;;0.40;0.20;;;19.30;99.90;;;;;;4956066;29;20423;-64
2021/07/23 07:34:39;;;;;;;0.40;0.20;;;19.10;99.90;;;;;;4955800;29;20196;-64
2021/07/23 07:37:06;;;;;;;0.40;0.20;;;19.20;9.30;;;;;;4955667;29;20181;-64
2021/07/23 07:39:32;;;;;;;0.70;0.67;;;19.30;99.90;;;;;;4956674;29;20431;-67
2021/07/23 07:41:58;;;;;;;1.50;1.37;;;19.30;99.90;;;;;;4938778;29;20603;-67
2021/07/23 07:44:24;;;;;;;0.40;0.13;;;19.10;1.00;;;;;;4938226;29;20538;-67
2021/07/23 07:46:49;;;;;;;0.50;0.33;;;18.60;99.90;;;;;;4937200;29;20432;-65
2021/07/23 07:49:19;;;;;;;0.40;0.20;;;18.30;1.00;;;;;;4937144;29;20520;-67
2021/07/23 07:51:45;;;;;;;0.90;0.20;;;18.50;1.00;;;;;;4940996;29;20177;-67
2021/07/23 07:54:12;;;;;;;1.40;0.87;;;18.60;99.90;;;;;;4957910;28;20438;-67
2021/07/23 07:56:38;;;;;;;0.50;0.27;;;18.40;1.00;;;;;;4978749;28;20430;-67
2021/07/23 07:59:04;;;;;;;0.40;0.20;;;18.10;1.00;;;;;;4961626;28;20895;-67
2021/07/23 08:01:30;;;;;;;0.40;0.20;;;18.30;1.00;;;;;;4978295;28;20480;-66
2021/07/23 08:03:55;;;;;;;0.50;0.20;;;17.90;1.00;;;;;;4978927;28;20290;-67
2021/07/23 08:06:23;;;;;;;0.50;0.30;;;18.00;1.00;;;;;;4961756;28;20207;-66
2021/07/23 08:08:50;;;;;;;0.40;0.10;;;18.50;1.00;;;;;;4924247;29;20185;-67
2021/07/23 08:11:16;;;;;;;0.40;0.20;;;18.90;1.00;;;;;;4958636;29;20764;-68
2021/07/23 08:13:41;;;;;;;0.63;0.50;;;19.20;99.90;;;;;;4958148;29;20736;-68
2021/07/23 08:16:08;;;;;;;1.43;0.60;;;19.80;99.90;;;;;;4952408;29;20446;-67
2021/07/23 08:18:34;;;;;;;0.40;0.20;;;19.70;1.00;;;;;;4957115;29;20610;-68
2021/07/23 08:21:02;;;;;;;0.90;0.57;;;20.00;1.00;;;;;;4939176;29;20433;-67
2021/07/23 08:23:29;;;;;;;0.40;0.20;;;20.10;1.00;;;;;;4938816;29;20632;-67
2021/07/23 08:25:54;;;;;;;0.40;0.17;;;19.90;1.00;;;;;;4957849;29;20527;-67
2021/07/23 08:28:20;;;;;;;0.40;0.30;;;19.60;99.90;;;;;;4957809;29;20502;-68
2021/07/23 08:30:45;;;;;;;0.40;0.20;;;19.50;99.90;;;;;;4957803;29;20184;-67
2021/07/23 08:33:11;;;;;;;0.40;0.20;;;19.60;99.90;;;;;;4943536;29;20187;-68
2021/07/23 08:35:37;;;;;;;5.10;1.70;;;19.90;1.00;;;;;;4954493;29;20173;-68
2021/07/23 08:38:03;;;;;;;0.70;0.70;;;20.10;1.00;;;;;;4957137;29;20219;-67
2021/07/23 08:40:29;;;;;;;0.40;0.20;;;20.00;1.00;;;;;;4956924;28;20477;-67
2021/07/23 08:42:54;;;;;;;0.40;0.20;;;19.90;1.00;;;;;;4977040;28;20431;-65
2021/07/23 08:45:21;;;;;;;2.30;0.93;;;19.90;1.00;;;;;;4959505;28;20481;-68
2021/07/23 08:47:47;;;;;;;0.40;0.20;;;19.80;1.00;;;;;;4976531;28;20255;-68
2021/07/23 08:50:12;;;;;;;0.40;0.20;;;19.70;1.00;;;;;;4962189;28;20475;-69
2021/07/23 08:52:44;;;;;;;0.40;0.20;;;19.10;99.90;;;;;;4957167;28;20181;-69
2021/07/23 08:55:13;;;;;;;0.40;0.20;;;19.50;99.90;;;;;;4940354;29;20188;-69
2021/07/23 08:57:39;;;;;;;0.90;0.73;;;19.80;1.00;;;;;;4940716;29;20483;-68
2021/07/23 09:00:06;;;;;;;1.03;0.73;;;20.20;99.90;;;;;;4957089;29;20432;-69
2021/07/23 09:02:56;;;;;;;0.40;0.20;;;19.70;99.90;;;;;;4956144;28;20443;-68
2021/07/23 09:05:37;;;;;;;0.50;0.37;;;19.60;1.00;;;;;;4956900;29;20475;-69
2021/07/23 09:08:19;;;;;;;0.43;0.20;;;19.60;1.00;;;;;;4957167;29;20459;-65
2021/07/23 09:10:47;;;;;;;0.70;0.40;;;19.90;1.00;;;;;;4957429;29;20486;-68
2021/07/23 09:13:23;;;;;;;0.40;0.20;;;20.10;99.90;;;;;;4962583;28;20449;-68
2021/07/23 09:15:50;;;;;;;0.40;0.20;;;19.80;1.00;;;;;;4959349;28;20473;-65
2021/07/23 09:18:20;;;;;;;0.40;0.10;;;19.80;1.00;;;;;;4960599;28;20435;-64
2021/07/23 09:20:56;;;;;;;0.40;0.20;;;20.10;99.90;;;;;;4957184;28;20434;-63
2021/07/23 09:23:33;;;;;;;0.40;0.20;;;19.70;1.00;;;;;;4956398;29;20439;-64
2021/07/23 09:26:09;;;;;;;0.40;0.20;;;19.60;1.00;;;;;;4956493;29;20730;-65
2021/07/23 09:28:37;;;;;;;0.40;0.20;;;19.70;1.00;;;;;;4956915;29;20428;-67
2021/07/23 09:31:04;;;;;;;0.40;0.20;;;20.00;1.00;;;;;;4956960;29;20443;-67
2021/07/23 09:33:39;;;;;;;0.50;0.20;;;20.10;1.00;;;;;;4956519;29;20486;-65
2021/07/23 09:36:05;;;;;;;0.53;0.53;;;20.10;99.90;;;;;;4956658;29;20431;-67
2021/07/23 09:38:39;;;;;;;1.53;1.43;;;19.90;1.00;;;;;;4956198;29;20439;-64
2021/07/23 09:41:11;;;;;;;0.40;0.20;;;19.50;1.00;;;;;;4956523;29;20420;-64
2021/07/23 09:43:39;;;;;;;0.73;0.63;;;19.10;99.90;;;;;;4956312;29;21169;-64
2021/07/23 09:46:21;;;;;;;0.60;0.43;;;19.50;99.90;;;;;;4956219;29;20691;-64
2021/07/23 09:48:52;;;;;;;0.40;0.20;;;19.60;42.30;;;;;;4955844;29;20917;-64
2021/07/23 09:51:19;;;;;;;0.50;0.20;;;19.20;99.90;;;;;;4956344;29;20535;-64
2021/07/23 09:53:45;;;;;;;0.40;0.20;;;19.30;99.90;;;;;;4962230;28;20441;-64
2021/07/23 09:56:11;;;;;;;1.07;0.97;;;20.00;99.90;;;;;;4976337;28;20814;-65
2021/07/23 09:58:44;;;;;;;0.70;0.60;;;20.40;85.90;;;;;;4976590;28;20191;-64
2021/07/23 10:01:18;;;;;;;0.40;0.17;;;20.10;68.20;;;;;;4976852;28;20232;-65
2021/07/23 10:03:47;;;;;;;0.80;0.60;;;19.80;1.00;;;;;;4976126;28;20541;-64
2021/07/23 10:06:23;;;;;;;0.40;0.20;;;20.20;1.00;;;;;;4975173;28;20533;-64
2021/07/23 10:08:56;;;;;;;0.60;0.47;;;20.60;90.10;;;;;;4975205;28;20492;-64
2021/07/23 10:11:23;;;;;;;0.70;0.43;;;21.00;99.90;;;;;;4958737;28;20430;-64
2021/07/23 10:13:51;;;;;;;0.77;0.77;;;21.00;99.90;;;;;;4974635;28;20430;-64
2021/07/23 10:16:17;;;;;;;0.50;0.30;;;21.20;28.60;;;;;;4974773;28;20839;-65
2021/07/23 10:18:44;;;;;;;0.40;0.20;;;21.40;1.00;;;;;;4955925;28;20478;-66
2021/07/23 10:21:10;;;;;;;0.40;0.20;;;21.60;1.00;;;;;;4938884;29;20188;-65
2021/07/23 10:23:44;;;;;;;0.60;0.30;;;21.60;99.90;;;;;;4952516;28;20459;-65
2021/07/23 10:26:12;;;;;;;0.40;0.20;;;21.50;99.90;;;;;;4955500;29;20903;-65
2021/07/23 10:28:42;;;;;;;0.40;0.20;;;21.90;99.90;;;;;;4955283;29;20428;-67
2021/07/23 10:31:21;;;;;;;0.40;0.20;;;22.00;1.00;;;;;;4955706;29;20526;-68
2021/07/23 10:34:01;;;;;;;0.50;0.30;;;21.60;99.90;;;;;;4955446;29;20435;-65
2021/07/23 10:36:28;;;;;;;1.20;1.10;;;21.50;1.00;;;;;;4955586;29;20466;-68
2021/07/23 10:39:06;;;;;;;0.60;0.53;;;21.10;99.90;;;;;;4954966;29;20432;-64
2021/07/23 10:41:53;;;;;;;1.73;0.93;;;21.00;1.00;;;;;;4955541;29;20424;-66
2021/07/23 10:44:28;;;;;;;1.23;0.33;;;21.40;99.90;;;;;;4916185;29;20512;-68
2021/07/23 10:46:56;;;;;;;0.40;0.20;;;22.20;99.90;;;;;;4955463;29;20423;-69
2021/07/23 10:49:24;;;;;;;0.50;0.40;;;21.80;1.00;;;;;;4940128;29;20439;-65
2021/07/23 10:51:52;;;;;;;0.40;0.20;;;21.80;59.10;;;;;;4956991;29;20562;-67
2021/07/23 10:54:19;;;;;;;0.50;0.27;;;21.80;99.90;;;;;;4956161;29;20498;-67
2021/07/23 10:57:01;;;;;;;5.47;0.90;;;22.00;99.90;;;;;;4957306;29;20547;-67
2021/07/23 10:59:39;;;;;;;0.60;0.47;;;22.00;99.90;;;;;;4939677;29;20443;-65
2021/07/23 11:02:06;;;;;;;4.07;1.07;;;22.10;99.90;;;;;;4955444;29;20500;-66
2021/07/23 11:04:33;;;;;;;0.60;0.60;;;21.80;1.00;;;;;;4938163;29;20472;-66
2021/07/23 11:07:03;;;;;;;0.40;0.20;;;21.80;1.00;;;;;;4955111;29;20442;-69
2021/07/23 11:09:31;;;;;;;0.40;0.20;;;21.70;99.90;;;;;;4955027;29;20527;-65
2021/07/23 11:12:18;;;;;;;0.40;0.20;;;21.40;99.90;;;;;;4938155;29;20932;-65
2021/07/23 11:15:00;;;;;;;0.43;0.20;;;21.30;1.00;;;;;;4937838;29;20436;-66
2021/07/23 11:17:27;;;;;;;0.40;0.20;;;21.50;99.90;;;;;;4955287;29;20515;-65
2021/07/23 11:20:03;;;;;;;0.40;0.20;;;21.50;1.00;;;;;;4955609;29;20431;-65
2021/07/23 11:22:32;;;;;;;0.93;0.37;;;21.40;1.00;;;;;;4954856;29;20769;-64
2021/07/23 11:25:05;;;;;;;0.40;0.20;;;21.60;99.90;;;;;;4936854;29;20670;-67
2021/07/23 11:27:34;;;;;;;0.60;0.43;;;21.50;1.00;;;;;;4939972;29;20765;-65
2021/07/23 11:30:16;;;;;;;0.40;0.20;;;21.60;1.00;;;;;;4940502;29;20466;-68
2021/07/23 11:32:55;;;;;;;0.50;0.30;;;21.40;99.90;;;;;;4939936;29;20432;-64
2021/07/23 11:35:25;;;;;;;0.40;0.20;;;21.90;99.90;;;;;;4939356;29;20537;-64
2021/07/23 11:37:52;;;;;;;1.23;0.50;;;22.30;1.00;;;;;;4939603;29;20536;-64
2021/07/23 11:40:19;;;;;;;1.03;0.60;;;22.80;99.90;;;;;;4939124;29;20496;-64
2021/07/23 11:42:50;;;;;;;0.50;0.20;;;22.70;99.90;;;;;;4922410;29;20432;-65
2021/07/23 11:45:17;;;;;;;0.40;0.20;;;22.30;1.00;;;;;;4938683;29;20563;-68
2021/07/23 11:47:44;;;;;;;0.40;0.20;;;22.10;1.00;;;;;;4939099;29;20468;-66
2021/07/23 11:50:12;;;;;;;0.70;0.53;;;22.20;1.00;;;;;;4939148;29;20511;-66
2021/07/23 11:52:38;;;;;;;0.40;0.20;;;22.00;99.90;;;;;;4939275;29;20654;-69
2021/07/23 11:55:06;;;;;;;0.40;0.20;;;21.20;1.00;;;;;;4970522;28;20821;-67
2021/07/23 11:57:40;;;;;;;0.47;0.27;;;21.00;1.00;;;;;;4977809;28;20441;-67
2021/07/23 12:00:19;;;;;;;0.50;0.40;;;20.90;23.60;;;;;;4977672;28;20837;-68
2021/07/23 12:02:45;;;;;;;0.50;0.30;;;20.80;1.00;;;;;;4977351;28;20773;-68
2021/07/23 12:05:13;;;;;;;0.50;0.20;;;20.60;1.00;;;;;;4977383;28;20475;-68
2021/07/23 12:07:39;;;;;;;0.40;0.20;;;20.60;99.90;;;;;;4976933;28;20449;-68
2021/07/23 12:10:12;;;;;;;0.40;0.20;;;21.10;1.00;;;;;;4977263;28;20512;-68
2021/07/23 12:12:38;;;;;;;0.77;0.50;;;21.20;1.00;;;;;;4976808;28;20466;-68
2021/07/23 12:15:12;;;;;;;0.40;0.20;;;21.10;1.00;;;;;;4977115;28;20514;-68
2021/07/23 12:17:45;;;;;;;0.50;0.30;;;21.00;99.90;;;;;;4966291;28;20639;-68
2021/07/23 12:20:12;;;;;;;0.40;0.20;;;21.10;97.80;;;;;;4957728;29;20943;-68
2021/07/23 12:22:38;;;;;;;0.40;0.20;;;20.70;99.90;;;;;;4957016;29;20940;-67
2021/07/23 12:25:17;;;;;;;0.60;0.40;;;20.70;1.00;;;;;;4938401;29;20562;-68
2021/07/23 12:27:43;;;;;;;1.17;0.30;;;20.30;1.00;;;;;;4938394;29;20428;-70
2021/07/23 12:30:10;;;;;;;0.60;0.33;;;19.80;1.00;;;;;;4938378;29;20512;-68
2021/07/23 12:32:36;;;;;;;0.40;0.20;;;19.70;1.00;;;;;;4955309;28;20439;-67
2021/07/23 12:35:02;;;;;;;0.63;0.63;;;19.60;99.90;;;;;;4976880;28;20787;-67
2021/07/23 12:37:28;;;;;;;0.40;0.20;;;20.20;1.00;;;;;;4976443;28;20440;-67
2021/07/23 12:40:01;;;;;;;0.50;0.20;;;20.90;99.90;;;;;;4976474;28;20184;-68
2021/07/23 12:42:27;;;;;;;0.50;0.30;;;20.50;99.90;;;;;;4977172;28;20470;-70
2021/07/23 12:44:53;;;;;;;0.97;0.93;;;20.30;99.90;;;;;;4977267;28;20513;-67
2021/07/23 12:47:19;;;;;;;0.40;0.20;;;20.20;99.90;;;;;;4977010;28;20858;-68
2021/07/23 12:49:50;;;;;;;0.87;0.57;;;20.10;1.00;;;;;;4976917;28;20262;-65
2021/07/23 12:52:16;;;;;;;0.40;0.20;;;19.90;1.00;;;;;;4977189;28;20435;-68